createdAt,value
2022-08-27T00:02:18.137Z,98882.45
2022-08-27T00:04:46.841Z,98877.40
2022-08-27T00:07:15.447Z,98877.27
2022-08-27T00:09:44.401Z,98878.88
2022-08-27T00:12:13.001Z,98870.70
2022-08-27T00:14:41.278Z,98867.58
2022-08-27T00:17:09.759Z,98866.12
2022-08-27T00:19:38.343Z,98867.30
2022-08-27T00:22:08.257Z,98863.10
2022-08-27T00:24:40.781Z,98862.08
2022-08-27T00:27:18.637Z,98860.08
2022-08-27T00:29:48.096Z,98858.13
2022-08-27T00:32:17.278Z,98862.80
2022-08-27T00:34:45.921Z,98864.36
2022-08-27T00:37:15.068Z,98858.61
2022-08-27T00:39:43.267Z,98855.80
2022-08-27T00:42:13.105Z,98855.26
2022-08-27T00:44:41.279Z,98848.83
2022-08-27T00:47:26.350Z,98849.94
2022-08-27T00:50:17.343Z,98849.21
2022-08-27T00:53:08.982Z,98847.30
2022-08-27T00:55:46.168Z,98843.89
2022-08-27T00:58:33.798Z,98849.32
2022-08-27T01:01:04.790Z,98846.48
2022-08-27T01:03:34.728Z,98846.70
2022-08-27T01:06:07.442Z,98845.35
2022-08-27T01:08:39.703Z,98846.98
2022-08-27T01:11:08.684Z,98849.41
2022-08-27T01:13:58.705Z,98850.77
2022-08-27T01:16:31.822Z,98856.65
2022-08-27T01:19:01.278Z,98858.13
2022-08-27T01:21:43.378Z,98856.73
2022-08-27T01:24:31.425Z,98859.14
2022-08-27T01:27:01.537Z,98857.48
2022-08-27T01:29:30.566Z,98854.79
2022-08-27T01:32:10.314Z,98851.32
2022-08-27T01:34:39.270Z,98849.83
2022-08-27T01:37:07.787Z,98850.50
2022-08-27T01:39:39.917Z,98851.15
2022-08-27T01:42:35.024Z,98853.62
2022-08-27T01:45:19.888Z,98854.51
2022-08-27T01:47:48.575Z,98853.83
2022-08-27T01:50:24.837Z,98856.17
2022-08-27T01:52:53.667Z,98855.15
2022-08-27T01:55:26.612Z,98853.55
2022-08-27T01:57:55.809Z,98853.99
2022-08-27T02:00:35.180Z,98856.38
2022-08-27T02:03:03.979Z,98855.70
2022-08-27T02:05:33.029Z,98851.94
2022-08-27T02:08:18.083Z,98851.64
2022-08-27T02:10:48.015Z,98847.55
2022-08-27T02:13:17.088Z,98846.88
2022-08-27T02:15:45.696Z,98846.05
2022-08-27T02:18:15.309Z,98840.16
2022-08-27T02:20:46.138Z,98840.64
2022-08-27T02:23:16.053Z,98840.32
2022-08-27T02:25:47.608Z,98837.32
2022-08-27T02:28:16.189Z,98837.11
2022-08-27T02:30:44.665Z,98834.59
2022-08-27T02:33:13.970Z,98834.29
2022-08-27T02:35:44.327Z,98835.13
2022-08-27T02:38:14.486Z,98837.27
2022-08-27T02:40:42.895Z,98841.79
2022-08-27T02:43:15.771Z,98837.82
2022-08-27T02:45:44.773Z,98832.13
2022-08-27T02:48:13.167Z,98831.29
2022-08-27T02:50:41.634Z,98835.11
2022-08-27T02:53:10.598Z,98837.45
2022-08-27T02:55:39.210Z,98835.17
2022-08-27T02:58:09.806Z,98836.63
2022-08-27T03:00:38.327Z,98834.59
2022-08-27T03:03:06.737Z,98835.30
2022-08-27T03:05:35.390Z,98836.13
2022-08-27T03:08:05.405Z,98834.79
2022-08-27T03:10:34.051Z,98834.27
2022-08-27T03:13:02.547Z,98837.78
2022-08-27T03:15:30.746Z,98840.77
2022-08-27T03:18:17.659Z,98842.48
2022-08-27T03:20:55.356Z,98839.75
2022-08-27T03:23:26.602Z,98836.80
2022-08-27T03:25:58.258Z,98838.52
2022-08-27T03:28:28.685Z,98841.42
2022-08-27T03:31:00.772Z,98842.73
2022-08-27T03:33:31.688Z,98842.38
2022-08-27T03:36:00.375Z,98841.17
2022-08-27T03:38:28.651Z,98843.48
2022-08-27T03:40:57.085Z,98843.08
2022-08-27T03:43:25.716Z,98838.26
2022-08-27T03:46:01.598Z,98837.46
2022-08-27T03:48:32.327Z,98838.00
2022-08-27T03:51:08.742Z,98836.61
2022-08-27T03:53:39.200Z,98839.46
2022-08-27T03:56:08.570Z,98844.80
2022-08-27T03:58:38.956Z,98844.46
2022-08-27T04:01:08.268Z,98846.55
2022-08-27T04:03:36.852Z,98845.14
2022-08-27T04:06:05.780Z,98841.70
2022-08-27T04:08:34.080Z,98841.27
2022-08-27T04:11:06.964Z,98841.41
2022-08-27T04:13:35.215Z,98843.01
2022-08-27T04:16:05.922Z,98844.92
2022-08-27T04:18:34.558Z,98846.27
2022-08-27T04:21:14.575Z,98842.28
2022-08-27T04:23:43.809Z,98842.66
2022-08-27T04:26:12.393Z,98843.81
2022-08-27T04:28:40.669Z,98844.98
2022-08-27T04:31:13.898Z,98843.43
2022-08-27T04:33:50.866Z,98840.87
2022-08-27T04:36:20.930Z,98839.62
2022-08-27T04:38:49.955Z,98838.09
2022-08-27T04:41:21.755Z,98841.66
2022-08-27T04:43:54.287Z,98838.29
2022-08-27T04:46:24.767Z,98838.31
2022-08-27T04:48:54.234Z,98839.91
2022-08-27T04:51:22.577Z,98838.65
2022-08-27T04:53:51.388Z,98836.56
2022-08-27T04:56:22.718Z,98834.58
2022-08-27T04:58:52.242Z,98837.32
2022-08-27T05:01:28.865Z,98839.21
2022-08-27T05:03:59.034Z,98842.98
2022-08-27T05:06:27.972Z,98842.42
2022-08-27T05:08:56.583Z,98848.11
2022-08-27T05:11:32.470Z,98849.13
2022-08-27T05:14:06.169Z,98848.94
2022-08-27T05:16:36.800Z,98849.34
2022-08-27T05:19:09.580Z,98851.86
2022-08-27T05:21:40.431Z,98849.54
2022-08-27T05:24:08.693Z,98852.65
2022-08-27T05:26:37.705Z,98856.17
2022-08-27T05:29:06.885Z,98852.52
2022-08-27T05:31:36.143Z,98846.94
2022-08-27T05:34:10.335Z,98849.48
2022-08-27T05:36:48.511Z,98848.02
2022-08-27T05:39:17.755Z,98848.12
2022-08-27T05:41:46.289Z,98847.84
2022-08-27T05:47:04.143Z,98845.80
2022-08-27T05:49:32.422Z,98843.36
2022-08-27T05:52:00.898Z,98844.33
2022-08-27T05:54:29.380Z,98843.95
2022-08-27T05:56:57.556Z,98843.98
2022-08-27T05:59:44.467Z,98845.83
2022-08-27T06:02:12.841Z,98846.23
2022-08-27T06:04:41.430Z,98845.05
2022-08-27T06:07:10.945Z,98843.58
2022-08-27T06:09:40.228Z,98841.40
2022-08-27T06:12:08.922Z,98841.27
2022-08-27T06:14:38.296Z,98842.52
2022-08-27T06:17:06.908Z,98841.95
2022-08-27T06:19:36.821Z,98836.66
2022-08-27T06:22:10.088Z,98836.88
2022-08-27T06:24:42.942Z,98838.08
2022-08-27T06:27:15.374Z,98838.48
2022-08-27T06:29:44.980Z,98836.89
2022-08-27T06:32:15.078Z,98838.67
2022-08-27T06:34:43.683Z,98841.77
2022-08-27T06:37:11.960Z,98844.83
2022-08-27T06:39:40.611Z,98847.13
2022-08-27T06:42:13.423Z,98849.36
2022-08-27T06:44:42.219Z,98842.98
2022-08-27T06:47:11.122Z,98840.46
2022-08-27T06:49:41.148Z,98843.25
2022-08-27T06:52:09.503Z,98839.27
2022-08-27T06:54:37.883Z,98840.29
2022-08-27T06:57:06.158Z,98841.12
2022-08-27T06:59:34.540Z,98838.95
2022-08-27T07:02:04.629Z,98839.60
2022-08-27T07:04:33.342Z,98837.61
2022-08-27T07:07:04.456Z,98839.15
2022-08-27T07:09:34.434Z,98843.10
2022-08-27T07:12:02.935Z,98844.45
2022-08-27T07:14:37.961Z,98845.95
2022-08-27T07:17:11.374Z,98840.79
2022-08-27T07:19:45.733Z,98839.81
2022-08-27T07:22:14.113Z,98838.49
2022-08-27T07:24:42.593Z,98836.11
2022-08-27T07:27:11.359Z,98831.78
2022-08-27T07:29:39.992Z,98829.17
2022-08-27T07:32:08.241Z,98823.97
2022-08-27T07:34:36.825Z,98827.94
2022-08-27T07:37:05.309Z,98822.27
2022-08-27T07:39:33.585Z,98824.73
2022-08-27T07:42:20.599Z,98824.06
2022-08-27T07:44:48.875Z,98825.30
2022-08-27T07:47:17.357Z,98826.75
2022-08-27T07:49:45.603Z,98824.84
2022-08-27T07:52:14.114Z,98833.02
2022-08-27T07:54:42.985Z,98836.55
2022-08-27T07:57:12.156Z,98833.14
2022-08-27T07:59:40.478Z,98835.46
2022-08-27T08:02:08.724Z,98831.84
2022-08-27T08:04:37.133Z,98834.56
2022-08-27T08:07:05.308Z,98829.92
2022-08-27T08:09:33.687Z,98834.45
2022-08-27T08:12:02.067Z,98834.92
2022-08-27T08:14:32.400Z,98838.19
2022-08-27T08:17:02.293Z,98836.05
2022-08-27T08:19:33.345Z,98837.38
2022-08-27T08:22:05.604Z,98842.44
2022-08-27T08:24:36.862Z,98847.40
2022-08-27T08:27:07.750Z,98848.66
2022-08-27T08:29:36.485Z,98849.20
2022-08-27T08:32:08.030Z,98851.34
2022-08-27T08:34:36.418Z,98850.80
2022-08-27T08:37:07.152Z,98852.94
2022-08-27T08:39:37.374Z,98855.87
2022-08-27T08:42:08.312Z,98856.98
2022-08-27T08:44:49.853Z,98858.69
2022-08-27T08:47:26.062Z,98860.06
2022-08-27T08:49:57.314Z,98859.60
2022-08-27T08:52:34.771Z,98863.40
2022-08-27T08:55:25.918Z,98858.88
2022-08-27T08:58:15.973Z,98860.73
2022-08-27T09:00:46.735Z,98859.70
2022-08-27T09:03:16.685Z,98861.37
2022-08-27T09:05:55.063Z,98860.96
2022-08-27T09:08:37.790Z,98863.25
2022-08-27T09:11:52.749Z,98855.74
2022-08-27T09:14:46.182Z,98856.41
2022-08-27T09:17:15.209Z,98853.82
2022-08-27T09:19:43.690Z,98848.39
2022-08-27T09:22:19.852Z,98845.58
2022-08-27T09:25:28.576Z,98845.98
2022-08-27T09:28:00.026Z,98846.91
2022-08-27T09:30:30.850Z,98848.15
2022-08-27T09:33:02.744Z,98847.20
2022-08-27T09:35:42.473Z,98846.00
2022-08-27T09:38:14.431Z,98843.23
2022-08-27T09:40:49.597Z,98843.91
2022-08-27T09:43:17.845Z,98841.19
2022-08-27T09:45:52.290Z,98840.30
2022-08-27T09:48:28.631Z,98838.74
2022-08-27T09:51:25.986Z,98839.80
2022-08-27T09:54:00.188Z,98837.61
2022-08-27T09:56:34.217Z,98837.56
2022-08-27T09:59:24.511Z,98837.70
2022-08-27T10:02:04.406Z,98836.36
2022-08-27T10:04:50.388Z,98836.72
2022-08-27T10:07:27.840Z,98837.19
2022-08-27T10:10:20.404Z,98840.40
2022-08-27T10:13:16.360Z,98840.90
2022-08-27T10:16:10.729Z,98836.48
2022-08-27T10:19:14.816Z,98839.66
2022-08-27T10:22:10.026Z,98843.80
2022-08-27T10:24:41.370Z,98842.55
2022-08-27T10:27:18.528Z,98842.25
2022-08-27T10:30:01.892Z,98837.60
2022-08-27T10:32:44.191Z,98834.52
2022-08-27T10:35:22.298Z,98832.94
2022-08-27T10:38:19.247Z,98837.20
2022-08-27T10:40:52.747Z,98834.61
2022-08-27T10:43:39.556Z,98831.62
2022-08-27T10:46:36.608Z,98833.65
2022-08-27T10:49:40.216Z,98826.65
2022-08-27T10:52:14.222Z,98821.23
2022-08-27T10:54:51.612Z,98817.94
2022-08-27T10:57:56.370Z,98820.82
2022-08-27T11:00:41.967Z,98819.20
2022-08-27T11:03:26.586Z,98817.30
2022-08-27T11:06:16.783Z,98819.92
2022-08-27T11:08:51.107Z,98818.55
2022-08-27T11:14:40.894Z,98813.52
2022-08-27T11:17:19.459Z,98811.13
2022-08-27T11:20:07.719Z,98809.13
2022-08-27T11:23:08.088Z,98808.94
2022-08-27T11:25:53.669Z,98807.50
2022-08-27T11:28:30.386Z,98804.79
2022-08-27T11:31:25.577Z,98804.48
2022-08-27T11:34:16.974Z,98804.36
2022-08-27T11:37:20.675Z,98804.73
2022-08-27T11:39:52.118Z,98802.64
2022-08-27T11:42:36.379Z,98802.77
2022-08-27T11:45:08.357Z,98801.77
2022-08-27T11:47:38.919Z,98803.58
2022-08-27T11:50:18.275Z,98803.74
2022-08-27T11:53:07.269Z,98798.60
2022-08-27T11:55:38.518Z,98801.19
2022-08-27T11:58:06.586Z,98800.15
2022-08-27T12:00:42.242Z,98800.93
2022-08-27T12:03:10.311Z,98800.26
2022-08-27T12:05:58.932Z,98797.73
2022-08-27T12:08:37.315Z,98795.20
2022-08-27T12:11:34.912Z,98795.92
2022-08-27T12:14:27.689Z,98796.57
2022-08-27T12:17:17.163Z,98792.79
2022-08-27T12:20:15.647Z,98790.83
2022-08-27T12:23:34.514Z,98790.11
2022-08-27T12:26:26.443Z,98789.05
2022-08-27T12:29:20.931Z,98780.07
2022-08-27T12:32:11.120Z,98778.21
2022-08-27T12:34:49.097Z,98775.48
2022-08-27T12:37:26.831Z,98774.77
2022-08-27T12:39:58.499Z,98775.55
2022-08-27T12:42:26.857Z,98773.23
2022-08-27T12:44:57.617Z,98769.26
2022-08-27T12:47:26.691Z,98764.97
2022-08-27T12:50:02.131Z,98766.41
2022-08-27T12:52:44.538Z,98764.13
2022-08-27T12:55:35.650Z,98768.16
2022-08-27T12:58:20.617Z,98764.00
2022-08-27T13:01:12.282Z,98763.48
2022-08-27T13:03:46.150Z,98759.77
2022-08-27T13:06:18.220Z,98760.02
2022-08-27T13:08:47.412Z,98759.04
2022-08-27T13:11:27.177Z,98760.43
2022-08-27T13:14:06.907Z,98754.77
2022-08-27T13:16:39.639Z,98755.38
2022-08-27T13:19:18.510Z,98756.70
2022-08-27T13:21:51.497Z,98754.43
2022-08-27T13:24:32.879Z,98757.95
2022-08-27T13:27:02.897Z,98755.15
2022-08-27T13:29:31.767Z,98757.29
2022-08-27T13:32:01.137Z,98756.54
2022-08-27T13:34:36.635Z,98759.06
2022-08-27T13:37:08.393Z,98754.49
2022-08-27T13:39:38.922Z,98757.15
2022-08-27T13:42:09.523Z,98756.23
2022-08-27T13:44:41.209Z,98754.23
2022-08-27T13:47:25.870Z,98759.10
2022-08-27T13:50:05.831Z,98758.77
2022-08-27T13:52:59.832Z,98755.57
2022-08-27T13:55:29.026Z,98751.05
2022-08-27T13:57:57.796Z,98744.16
2022-08-27T14:00:27.394Z,98742.48
2022-08-27T14:02:56.929Z,98745.30
2022-08-27T14:05:25.176Z,98741.16
2022-08-27T14:08:18.238Z,98742.21
2022-08-27T14:10:58.183Z,98737.46
2022-08-27T14:13:28.911Z,98739.53
2022-08-27T14:16:00.431Z,98736.04
2022-08-27T14:18:57.229Z,98733.08
2022-08-27T14:21:21.911Z,98733.55
2022-08-27T14:23:50.389Z,98734.33
2022-08-27T14:26:19.175Z,98734.75
2022-08-27T14:28:47.774Z,98735.73
2022-08-27T14:31:16.956Z,98738.44
2022-08-27T14:33:46.943Z,98740.73
2022-08-27T14:36:16.275Z,98742.11
2022-08-27T14:38:48.996Z,98741.84
2022-08-27T14:41:21.654Z,98743.75
2022-08-27T14:43:50.217Z,98743.96
2022-08-27T14:46:26.925Z,98743.52
2022-08-27T14:48:58.648Z,98740.45
2022-08-27T14:51:30.305Z,98735.90
2022-08-27T14:53:59.254Z,98732.84
2022-08-27T14:56:27.475Z,98733.27
2022-08-27T14:58:55.849Z,98727.86
2022-08-27T15:01:26.618Z,98728.83
2022-08-27T15:03:56.395Z,98730.40
2022-08-27T15:06:25.497Z,98728.51
2022-08-27T15:08:55.121Z,98727.58
2022-08-27T15:11:28.394Z,98721.18
2022-08-27T15:13:57.590Z,98723.63
2022-08-27T15:16:38.667Z,98720.89
2022-08-27T15:19:09.195Z,98726.36
2022-08-27T15:21:39.521Z,98720.72
2022-08-27T15:24:24.897Z,98721.55
2022-08-27T15:26:58.295Z,98723.41
2022-08-27T15:29:27.396Z,98719.76
2022-08-27T15:31:55.730Z,98718.67
2022-08-27T15:34:24.045Z,98716.73
2022-08-27T15:36:52.321Z,98715.45
2022-08-27T15:39:20.707Z,98715.36
2022-08-27T15:42:07.161Z,98713.61
2022-08-27T15:44:36.710Z,98716.36
2022-08-27T15:47:05.234Z,98715.52
2022-08-27T15:49:33.467Z,98716.40
2022-08-27T15:52:02.157Z,98715.73
2022-08-27T15:54:31.651Z,98716.28
2022-08-27T15:57:00.366Z,98714.09
2022-08-27T15:59:28.714Z,98712.96
2022-08-27T16:01:57.580Z,98713.58
2022-08-27T16:04:25.984Z,98709.55
2022-08-27T16:06:55.230Z,98711.02
2022-08-27T16:09:23.475Z,98707.77
2022-08-27T16:11:51.941Z,98713.69
2022-08-27T16:14:20.217Z,98717.08
2022-08-27T16:16:50.542Z,98714.83
2022-08-27T16:19:20.075Z,98717.53
2022-08-27T16:21:51.252Z,98718.05
2022-08-27T16:24:21.546Z,98714.86
2022-08-27T16:26:50.099Z,98714.27
2022-08-27T16:29:18.282Z,98717.66
2022-08-27T16:31:46.651Z,98716.63
2022-08-27T16:34:24.859Z,98723.28
2022-08-27T16:36:53.034Z,98725.06
2022-08-27T16:39:21.206Z,98724.58
2022-08-27T16:41:50.434Z,98728.80
2022-08-27T16:44:18.580Z,98730.42
2022-08-27T16:46:46.753Z,98730.04
2022-08-27T16:49:33.769Z,98737.19
2022-08-27T16:52:02.865Z,98736.73
2022-08-27T16:54:30.987Z,98736.80
2022-08-27T16:56:59.317Z,98737.04
2022-08-27T16:59:27.388Z,98739.30
2022-08-27T17:01:56.586Z,98742.10
2022-08-27T17:04:31.308Z,98741.98
2022-08-27T17:07:05.121Z,98743.70
2022-08-27T17:09:35.135Z,98746.84
2022-08-27T17:12:05.326Z,98750.95
2022-08-27T17:14:38.549Z,98755.79
2022-08-27T17:17:09.693Z,98756.71
2022-08-27T17:19:37.866Z,98761.29
2022-08-27T17:22:09.624Z,98766.73
2022-08-27T17:24:37.799Z,98771.26
2022-08-27T17:27:06.279Z,98771.20
2022-08-27T17:29:34.763Z,98775.23
2022-08-27T17:32:09.206Z,98779.37
2022-08-27T17:34:41.553Z,98782.46
2022-08-27T17:37:13.107Z,98784.50
2022-08-27T17:39:41.383Z,98789.94
2022-08-27T17:42:09.761Z,98788.94
2022-08-27T17:44:38.380Z,98790.35
2022-08-27T17:47:08.130Z,98792.42
2022-08-27T17:49:36.844Z,98795.63
2022-08-27T17:52:11.264Z,98799.56
2022-08-27T17:54:47.061Z,98803.73
2022-08-27T17:57:22.869Z,98802.76
2022-08-27T17:59:52.440Z,98805.97
2022-08-27T18:02:29.457Z,98806.11
2022-08-27T18:04:57.868Z,98809.52
2022-08-27T18:07:26.830Z,98812.05
2022-08-27T18:09:55.925Z,98812.22
2022-08-27T18:12:27.506Z,98810.79
2022-08-27T18:15:21.576Z,98804.90
2022-08-27T18:17:53.546Z,98809.26
2022-08-27T18:20:29.382Z,98810.33
2022-08-27T18:22:59.083Z,98807.03
2022-08-27T18:25:35.392Z,98806.91
2022-08-27T18:28:08.140Z,98806.30
2022-08-27T18:30:39.760Z,98807.59
2022-08-27T18:33:09.099Z,98809.38
2022-08-27T18:35:38.900Z,98811.39
2022-08-27T18:38:07.492Z,98812.40
2022-08-27T18:40:42.220Z,98815.22
2022-08-27T18:43:11.873Z,98820.40
2022-08-27T18:45:40.132Z,98830.48
2022-08-27T18:48:17.903Z,98826.63
2022-08-27T18:50:49.039Z,98829.86
2022-08-27T18:53:20.182Z,98832.02
2022-08-27T18:55:50.351Z,98835.70
2022-08-27T18:58:19.123Z,98834.55
2022-08-27T19:00:51.504Z,98834.73
2022-08-27T19:03:42.353Z,98838.55
2022-08-27T19:06:11.074Z,98844.42
2022-08-27T19:08:41.082Z,98849.84
2022-08-27T19:11:11.555Z,98853.01
2022-08-27T19:13:41.723Z,98851.70
2022-08-27T19:16:17.849Z,98855.93
2022-08-27T19:18:47.124Z,98853.73
2022-08-27T19:21:15.873Z,98851.14
2022-08-27T19:23:44.054Z,98847.25
2022-08-27T19:26:19.386Z,98844.52
2022-08-27T19:28:47.774Z,98844.70
2022-08-27T19:31:16.743Z,98846.86
2022-08-27T19:33:45.546Z,98850.11
2022-08-27T19:36:16.611Z,98852.01
2022-08-27T19:38:46.706Z,98851.92
2022-08-27T19:41:14.983Z,98850.09
2022-08-27T19:43:45.845Z,98851.88
2022-08-27T19:46:18.870Z,98850.99
2022-08-27T19:48:47.903Z,98853.61
2022-08-27T19:51:16.181Z,98851.36
2022-08-27T19:53:44.660Z,98855.05
2022-08-27T19:56:14.574Z,98857.88
2022-08-27T19:58:43.426Z,98857.91
2022-08-27T20:01:12.340Z,98857.42
2022-08-27T20:03:41.427Z,98859.56
2022-08-27T20:06:09.623Z,98858.19
2022-08-27T20:08:37.800Z,98858.42
2022-08-27T20:11:06.076Z,98860.78
2022-08-27T20:13:34.723Z,98859.53
2022-08-27T20:16:04.689Z,98859.54
2022-08-27T20:18:35.205Z,98863.59
2022-08-27T20:21:06.101Z,98863.95
2022-08-27T20:23:34.628Z,98864.54
2022-08-27T20:26:02.901Z,98865.54
2022-08-27T20:28:39.895Z,98863.50
2022-08-27T20:31:08.675Z,98863.00
2022-08-27T20:33:36.845Z,98863.98
2022-08-27T20:36:06.755Z,98869.77
2022-08-27T20:38:35.444Z,98883.30
2022-08-27T20:41:04.401Z,98886.81
2022-08-27T20:43:33.025Z,98888.79
2022-08-27T20:46:02.215Z,98894.11
2022-08-27T20:48:30.496Z,98891.99
2022-08-27T20:50:58.669Z,98892.92
2022-08-27T20:53:27.154Z,98895.79
2022-08-27T20:55:56.902Z,98895.58
2022-08-27T20:58:44.535Z,98891.47
2022-08-27T21:01:12.634Z,98888.52
2022-08-27T21:03:40.940Z,98889.21
2022-08-27T21:06:09.324Z,98884.36
2022-08-27T21:08:39.234Z,98883.67
2022-08-27T21:11:13.963Z,98878.42
2022-08-27T21:13:55.617Z,98872.40
2022-08-27T21:16:25.914Z,98869.52
2022-08-27T21:18:54.292Z,98872.30
2022-08-27T21:21:23.211Z,98870.97
2022-08-27T21:23:51.420Z,98870.14
2022-08-27T21:26:22.361Z,98866.69
2022-08-27T21:28:54.675Z,98865.02
2022-08-27T21:31:25.492Z,98865.09
2022-08-27T21:33:53.947Z,98868.34
2022-08-27T21:36:22.491Z,98870.46
2022-08-27T21:38:51.115Z,98879.40
2022-08-27T21:41:19.758Z,98882.21
2022-08-27T21:43:47.976Z,98879.44
2022-08-27T21:46:16.748Z,98878.98
2022-08-27T21:48:44.937Z,98875.86
2022-08-27T21:51:24.400Z,98876.98
2022-08-27T21:53:53.061Z,98882.44
2022-08-27T21:56:21.235Z,98881.91
2022-08-27T21:58:49.355Z,98874.66
2022-08-27T22:01:18.196Z,98877.19
2022-08-27T22:03:49.541Z,98880.52
2022-08-27T22:06:19.664Z,98878.66
2022-08-27T22:08:48.346Z,98871.83
2022-08-27T22:11:21.964Z,98869.13
2022-08-27T22:13:53.711Z,98866.25
2022-08-27T22:16:22.024Z,98862.42
2022-08-27T22:18:54.816Z,98863.49
2022-08-27T22:21:25.197Z,98861.61
2022-08-27T22:23:53.472Z,98862.77
2022-08-27T22:26:22.389Z,98861.25
2022-08-27T22:28:50.583Z,98860.97
2022-08-27T22:31:19.083Z,98860.56
2022-08-27T22:33:47.805Z,98859.45
2022-08-27T22:36:15.980Z,98866.23
2022-08-27T22:38:44.359Z,98868.71
2022-08-27T22:41:14.042Z,98870.27
2022-08-27T22:43:45.213Z,98868.63
2022-08-27T22:46:13.413Z,98862.68
2022-08-27T22:48:41.663Z,98860.58
2022-08-27T22:51:09.836Z,98858.56
2022-08-27T22:53:40.366Z,98854.50
2022-08-27T22:56:08.951Z,98854.48
2022-08-27T22:58:37.123Z,98849.97
2022-08-27T23:01:05.901Z,98849.84
2022-08-27T23:03:34.021Z,98845.13
2022-08-27T23:06:03.074Z,98847.75
2022-08-27T23:08:32.173Z,98845.91
2022-08-27T23:11:00.450Z,98844.84
2022-08-27T23:13:31.695Z,98848.00
2022-08-27T23:16:01.978Z,98846.24
2022-08-27T23:18:30.403Z,98849.73
2022-08-27T23:20:58.880Z,98853.23
2022-08-27T23:23:29.753Z,98855.23
2022-08-27T23:26:18.371Z,98858.44
2022-08-27T23:28:47.242Z,98864.26
2022-08-27T23:31:15.684Z,98869.97
2022-08-27T23:33:44.121Z,98876.84
2022-08-27T23:36:12.971Z,98878.68
2022-08-27T23:38:41.188Z,98874.38
2022-08-27T23:41:09.360Z,98869.35
2022-08-27T23:43:37.843Z,98875.58
2022-08-27T23:46:06.061Z,98877.95
2022-08-27T23:48:34.189Z,98877.70
2022-08-27T23:51:03.080Z,98886.86
2022-08-27T23:53:31.562Z,98886.29
2022-08-27T23:55:59.736Z,98885.29
2022-08-27T23:58:27.912Z,98881.98
